Time;durP1;ratioP1;P1;durP2;ratioP2;P2;SDS_P1;SDS_P2;PMS_P1;PMS_P2;Temp;Humidity;BMP_temperature;BMP_pressure;BME280_temperature;BME280_humidity;BME280_pressure;Samples;Min_cycle;Max_cycle;Signal;HPM_P1;HPM_P2
2023/05/28 00:00:30;;;;;;;10.10;5.53;;;;;;;;;;5011573;28;20874;-67
2023/05/28 00:02:57;;;;;;;12.20;5.47;;;;;;;;;;5011147;28;20526;-66
2023/05/28 00:05:24;;;;;;;10.00;6.17;;;;;;;;;;5009495;28;20874;-66
2023/05/28 00:07:51;;;;;;;13.40;6.10;;;;;;;;;;5010116;28;20202;-66
2023/05/28 00:10:18;;;;;;;12.37;6.07;;;;;;;;;;5009695;28;20459;-67
2023/05/28 00:12:44;;;;;;;9.10;6.77;;;;;;;;;;5009608;28;20470;-67
2023/05/28 00:15:11;;;;;;;12.37;6.80;;;;;;;;;;5011301;28;20442;-69
2023/05/28 00:17:38;;;;;;;12.50;5.80;;;;;;;;;;5010012;28;20482;-66
2023/05/28 00:20:05;;;;;;;12.37;6.90;;;;;;;;;;4993399;28;20188;-67
2023/05/28 00:22:32;;;;;;;11.97;6.40;;;;;;;;;;5009952;28;20193;-67
2023/05/28 00:24:59;;;;;;;12.00;6.40;;;;;;;;;;5010390;28;20578;-67
2023/05/28 00:27:26;;;;;;;12.47;6.07;;;;;;;;;;5010309;28;21394;-67
2023/05/28 00:29:53;;;;;;;10.97;6.33;;;;;;;;;;5009545;28;20951;-67
2023/05/28 00:32:19;;;;;;;10.37;5.80;;;;;;;;;;5010329;28;20477;-67
2023/05/28 00:34:46;;;;;;;11.97;5.63;;;;;;;;;;4993390;28;20447;-67
2023/05/28 00:37:13;;;;;;;11.30;6.57;;;;;;;;;;5010351;28;20482;-67
2023/05/28 00:39:40;;;;;;;10.07;5.77;;;;;;;;;;5009536;28;20542;-67
2023/05/28 00:42:07;;;;;;;9.83;5.60;;;;;;;;;;5009025;28;20227;-67
2023/05/28 00:44:34;;;;;;;13.80;5.73;;;;;;;;;;4992746;28;20267;-67
2023/05/28 00:47:02;;;;;;;9.87;5.70;;;;;;;;;;4996588;28;20424;-67
2023/05/28 00:49:28;;;;;;;7.50;5.50;;;;;;;;;;5008229;28;20455;-67
2023/05/28 00:51:55;;;;;;;9.87;5.50;;;;;;;;;;5009504;28;20211;-67
2023/05/28 00:54:25;;;;;;;11.00;5.70;;;;;;;;;;4991598;28;20454;-67
2023/05/28 00:56:53;;;;;;;9.47;5.40;;;;;;;;;;4976047;28;20470;-67
2023/05/28 00:59:20;;;;;;;8.63;5.63;;;;;;;;;;4991726;28;20192;-67
2023/05/28 01:01:47;;;;;;;10.13;5.87;;;;;;;;;;4975857;28;20319;-66
2023/05/28 01:04:14;;;;;;;10.10;5.67;;;;;;;;;;4992607;28;20790;-67
2023/05/28 01:06:43;;;;;;;10.47;5.33;;;;;;;;;;4991597;28;20463;-67
2023/05/28 01:09:11;;;;;;;12.37;5.50;;;;;;;;;;5009633;28;20184;-67
2023/05/28 01:11:38;;;;;;;11.87;6.00;;;;;;;;;;4991162;28;20482;-66
2023/05/28 01:14:05;;;;;;;9.97;5.50;;;;;;;;;;4992619;28;20827;-67
2023/05/28 01:16:33;;;;;;;10.67;6.20;;;;;;;;;;4989336;28;20451;-67
2023/05/28 01:19:00;;;;;;;10.87;6.07;;;;;;;;;;4992028;28;21006;-67
2023/05/28 01:21:30;;;;;;;10.90;5.93;;;;;;;;;;5009181;28;20566;-66
2023/05/28 01:24:01;;;;;;;8.20;5.47;;;;;;;;;;4976359;28;20462;-66
2023/05/28 01:26:28;;;;;;;9.40;5.93;;;;;;;;;;4990810;28;20227;-67
2023/05/28 01:28:56;;;;;;;10.87;5.70;;;;;;;;;;4975631;28;20443;-67
2023/05/28 01:31:23;;;;;;;11.50;5.60;;;;;;;;;;4991044;28;20520;-66
2023/05/28 01:33:50;;;;;;;8.80;5.43;;;;;;;;;;4991550;28;20553;-66
2023/05/28 01:36:19;;;;;;;9.17;5.93;;;;;;;;;;5009235;28;20482;-67
2023/05/28 01:38:47;;;;;;;9.80;5.17;;;;;;;;;;4973615;28;20459;-66
2023/05/28 01:41:13;;;;;;;10.37;5.63;;;;;;;;;;4991880;28;20460;-66
2023/05/28 02:18:10;;;;;;;9.33;5.20;;;;;;;;;;4991168;28;20489;-67
2023/05/28 02:20:37;;;;;;;11.60;5.00;;;;;;;;;;4990976;28;21037;-66
2023/05/28 02:23:03;;;;;;;10.00;5.17;;;;;;;;;;5008568;28;20461;-67
2023/05/28 02:25:30;;;;;;;9.17;4.90;;;;;;;;;;4991142;28;20483;-66
2023/05/28 02:27:58;;;;;;;9.37;5.53;;;;;;;;;;4990753;28;20463;-66
2023/05/28 02:30:25;;;;;;;9.27;5.30;;;;;;;;;;4990846;28;20561;-66
2023/05/28 02:32:54;;;;;;;10.97;5.00;;;;;;;;;;5008475;28;20581;-67
2023/05/28 02:35:22;;;;;;;10.13;5.20;;;;;;;;;;5008499;28;20791;-66
2023/05/28 02:37:49;;;;;;;9.80;5.33;;;;;;;;;;4990748;28;20497;-66
2023/05/28 02:43:08;;;;;;;9.00;5.23;;;;;;;;;;5007367;28;20487;-66
2023/05/28 02:45:34;;;;;;;11.57;5.13;;;;;;;;;;4990916;28;21031;-66
2023/05/28 02:48:01;;;;;;;10.03;4.93;;;;;;;;;;4990697;28;20493;-66
2023/05/28 02:50:29;;;;;;;9.13;4.67;;;;;;;;;;4991117;28;20489;-66
2023/05/28 02:53:19;;;;;;;10.07;4.50;;;;;;;;;;5007316;28;21362;-66
2023/05/28 02:55:48;;;;;;;9.00;4.63;;;;;;;;;;4974894;28;20501;-66
2023/05/28 02:58:14;;;;;;;9.57;5.07;;;;;;;;;;4983727;28;20870;-66
2023/05/28 03:00:41;;;;;;;10.53;4.87;;;;;;;;;;4989742;28;20447;-66
2023/05/28 03:03:09;;;;;;;11.07;5.23;;;;;;;;;;4990091;28;20783;-66
2023/05/28 03:05:36;;;;;;;9.87;5.00;;;;;;;;;;4990701;28;20463;-66
2023/05/28 03:08:03;;;;;;;8.63;4.67;;;;;;;;;;4990497;28;20446;-66
2023/05/28 03:10:32;;;;;;;14.53;6.13;;;;;;;;;;5008098;28;20470;-66
2023/05/28 03:12:58;;;;;;;16.07;4.93;;;;;;;;;;4989800;28;20478;-66
2023/05/28 03:15:26;;;;;;;14.80;5.57;;;;;;;;;;4993774;28;20521;-66
2023/05/28 03:17:53;;;;;;;12.00;4.93;;;;;;;;;;4988646;28;21014;-67
2023/05/28 03:20:24;;;;;;;14.93;5.10;;;;;;;;;;5000211;28;20482;-66
2023/05/28 03:22:54;;;;;;;19.87;5.07;;;;;;;;;;4993234;28;21004;-66
2023/05/28 03:25:23;;;;;;;11.37;4.77;;;;;;;;;;4994140;28;20443;-67
2023/05/28 03:27:52;;;;;;;22.63;5.27;;;;;;;;;;4978603;28;21037;-66
2023/05/28 03:30:21;;;;;;;13.33;4.70;;;;;;;;;;4993915;28;20877;-67
2023/05/28 03:32:54;;;;;;;16.10;4.57;;;;;;;;;;4992360;28;20474;-66
2023/05/28 03:35:21;;;;;;;12.17;4.33;;;;;;;;;;4979680;28;20291;-66
2023/05/28 03:37:48;;;;;;;10.00;4.67;;;;;;;;;;4983636;28;20795;-66
2023/05/28 03:40:16;;;;;;;9.57;4.37;;;;;;;;;;4975579;28;20815;-66
2023/05/28 03:42:43;;;;;;;7.77;4.40;;;;;;;;;;5010409;28;20968;-66
2023/05/28 03:45:10;;;;;;;8.83;4.17;;;;;;;;;;5010105;28;20279;-66
2023/05/28 03:47:37;;;;;;;10.17;4.10;;;;;;;;;;5003035;28;20215;-66
2023/05/28 03:50:04;;;;;;;12.00;4.67;;;;;;;;;;4992672;28;20299;-66
2023/05/28 03:52:31;;;;;;;7.67;4.20;;;;;;;;;;4994189;28;20208;-66
2023/05/28 03:54:59;;;;;;;10.73;4.43;;;;;;;;;;4994624;28;20200;-67
2023/05/28 03:57:26;;;;;;;8.20;4.33;;;;;;;;;;4992426;28;20204;-67
2023/05/28 03:59:56;;;;;;;9.93;4.40;;;;;;;;;;4986474;28;20238;-66
2023/05/28 04:02:24;;;;;;;8.70;4.63;;;;;;;;;;4998066;28;20192;-66
2023/05/28 04:04:51;;;;;;;7.23;3.87;;;;;;;;;;5011882;28;20200;-66
2023/05/28 04:07:18;;;;;;;7.97;4.00;;;;;;;;;;4990158;28;20224;-66
2023/05/28 04:09:44;;;;;;;7.97;4.00;;;;;;;;;;4971562;28;20282;-66
2023/05/28 04:12:12;;;;;;;8.53;4.40;;;;;;;;;;4993088;28;20235;-67
2023/05/28 04:14:40;;;;;;;9.93;4.60;;;;;;;;;;5009309;28;20910;-66
2023/05/28 04:17:08;;;;;;;6.63;4.03;;;;;;;;;;4991700;28;20286;-67
2023/05/28 04:19:34;;;;;;;9.33;4.77;;;;;;;;;;4990978;28;20204;-66
2023/05/28 04:22:04;;;;;;;9.17;4.30;;;;;;;;;;5009852;28;20208;-66
2023/05/28 04:24:32;;;;;;;7.87;4.10;;;;;;;;;;5010242;28;20246;-66
2023/05/28 04:26:59;;;;;;;8.70;4.43;;;;;;;;;;4990562;28;20206;-67
2023/05/28 04:29:28;;;;;;;8.37;4.03;;;;;;;;;;4991960;28;20261;-67
2023/05/28 04:31:57;;;;;;;8.07;3.93;;;;;;;;;;5009847;28;20250;-67
2023/05/28 04:34:24;;;;;;;6.80;3.60;;;;;;;;;;4991979;28;20250;-66
2023/05/28 04:36:51;;;;;;;8.17;4.13;;;;;;;;;;4991779;28;20287;-67
2023/05/28 04:39:19;;;;;;;8.53;4.03;;;;;;;;;;4987858;28;20193;-66
2023/05/28 04:41:45;;;;;;;5.87;3.33;;;;;;;;;;4991252;28;20599;-68
2023/05/28 04:44:15;;;;;;;7.80;3.70;;;;;;;;;;5004370;28;20188;-66
2023/05/28 04:46:45;;;;;;;5.60;3.20;;;;;;;;;;4987891;28;20224;-66
2023/05/28 04:49:12;;;;;;;5.43;2.90;;;;;;;;;;5007196;28;20195;-67
2023/05/28 04:51:38;;;;;;;6.57;3.30;;;;;;;;;;5002933;28;20219;-67
2023/05/28 04:54:07;;;;;;;3.77;2.50;;;;;;;;;;4984661;28;20236;-67
2023/05/28 04:56:34;;;;;;;5.07;2.80;;;;;;;;;;4986127;28;20231;-66
2023/05/28 04:59:04;;;;;;;4.77;2.20;;;;;;;;;;4986761;28;20194;-66
2023/05/28 05:01:33;;;;;;;4.47;2.63;;;;;;;;;;4972459;28;20227;-65
2023/05/28 05:04:03;;;;;;;4.10;1.90;;;;;;;;;;4982968;28;20188;-67
2023/05/28 05:06:31;;;;;;;4.90;2.40;;;;;;;;;;4971093;28;20929;-67
2023/05/28 05:08:58;;;;;;;3.20;2.10;;;;;;;;;;5019793;28;20295;-67
2023/05/28 05:11:26;;;;;;;3.27;2.03;;;;;;;;;;5008056;28;20192;-66
2023/05/28 05:13:53;;;;;;;5.03;1.70;;;;;;;;;;4989511;28;20227;-66
2023/05/28 05:16:20;;;;;;;4.43;2.40;;;;;;;;;;4989506;28;20184;-68
2023/05/28 05:19:02;;;;;;;3.23;1.87;;;;;;;;;;5077882;27;20539;-68
2023/05/28 05:21:29;;;;;;;5.53;1.90;;;;;;;;;;5078901;28;20198;-68
2023/05/28 05:23:56;;;;;;;3.20;1.93;;;;;;;;;;5061432;28;20221;-69
2023/05/28 05:26:23;;;;;;;5.73;1.83;;;;;;;;;;5055585;28;20278;-65
2023/05/28 05:28:51;;;;;;;3.50;1.90;;;;;;;;;;5053657;28;20191;-64
2023/05/28 05:31:17;;;;;;;4.20;2.10;;;;;;;;;;5048480;28;20186;-64
2023/05/28 05:33:45;;;;;;;2.80;1.70;;;;;;;;;;5051147;28;20190;-64
2023/05/28 05:36:37;;;;;;;3.60;1.90;;;;;;;;;;5023449;28;20554;-64
2023/05/28 05:39:42;;;;;;;3.70;1.63;;;;;;;;;;5010945;28;20222;-63
2023/05/28 05:42:39;;;;;;;6.83;1.70;;;;;;;;;;5016836;28;20211;-65
2023/05/28 05:45:06;;;;;;;3.83;1.53;;;;;;;;;;5036425;28;20194;-64
2023/05/28 05:47:33;;;;;;;4.30;1.20;;;;;;;;;;5064206;28;20211;-64
2023/05/28 05:50:00;;;;;;;2.63;1.30;;;;;;;;;;5041805;28;20219;-65
2023/05/28 05:52:27;;;;;;;3.17;1.50;;;;;;;;;;5014896;28;20203;-64
2023/05/28 05:54:55;;;;;;;2.57;1.10;;;;;;;;;;5021540;28;20192;-64
2023/05/28 05:57:23;;;;;;;4.10;1.23;;;;;;;;;;5033509;28;20278;-66
2023/05/28 05:59:52;;;;;;;2.50;1.30;;;;;;;;;;5007521;28;20192;-66
2023/05/28 06:02:20;;;;;;;7.90;1.60;;;;;;;;;;5022037;28;20788;-65
2023/05/28 06:04:46;;;;;;;3.80;1.40;;;;;;;;;;5023453;28;20918;-65
2023/05/28 06:07:28;;;;;;;3.67;1.57;;;;;;;;;;5021018;28;20647;-67
2023/05/28 06:10:18;;;;;;;1.60;1.10;;;;;;;;;;5005874;28;20196;-67
2023/05/28 06:12:44;;;;;;;3.63;1.40;;;;;;;;;;5011000;28;20195;-65
2023/05/28 06:15:12;;;;;;;3.50;1.10;;;;;;;;;;5021668;28;20270;-66
2023/05/28 06:17:41;;;;;;;3.40;1.10;;;;;;;;;;5025572;28;20215;-67
2023/05/28 06:20:08;;;;;;;4.20;1.30;;;;;;;;;;5053209;28;20298;-65
2023/05/28 06:22:37;;;;;;;5.53;1.10;;;;;;;;;;5029945;28;20269;-66
2023/05/28 06:25:04;;;;;;;3.93;1.50;;;;;;;;;;5063952;28;20214;-66
2023/05/28 06:27:32;;;;;;;3.70;1.17;;;;;;;;;;5028816;28;20266;-68
2023/05/28 06:29:59;;;;;;;6.87;1.50;;;;;;;;;;5040932;28;21047;-65
2023/05/28 06:32:26;;;;;;;2.57;1.03;;;;;;;;;;5013059;28;20191;-66
2023/05/28 06:34:55;;;;;;;2.87;1.30;;;;;;;;;;5025936;28;20187;-66
2023/05/28 06:37:26;;;;;;;2.47;1.00;;;;;;;;;;5016846;28;20245;-64
2023/05/28 06:39:53;;;;;;;7.83;1.30;;;;;;;;;;5025015;28;20277;-65
2023/05/28 06:42:21;;;;;;;2.37;1.03;;;;;;;;;;5028313;28;20203;-65
2023/05/28 06:45:15;;;;;;;1.23;1.00;;;;;;;;;;5047889;28;20195;-65
2023/05/28 06:47:42;;;;;;;3.20;1.00;;;;;;;;;;5048957;28;20202;-66
2023/05/28 06:50:10;;;;;;;1.83;1.20;;;;;;;;;;5044729;28;20216;-66
2023/05/28 06:52:37;;;;;;;2.37;1.33;;;;;;;;;;5037330;28;20194;-65
2023/05/28 06:55:08;;;;;;;3.67;1.40;;;;;;;;;;5043263;28;20196;-65
2023/05/28 06:57:52;;;;;;;6.97;1.13;;;;;;;;;;5014902;28;20223;-66
2023/05/28 07:00:48;;;;;;;2.73;1.23;;;;;;;;;;5021697;28;20269;-64
2023/05/28 07:03:25;;;;;;;3.13;1.63;;;;;;;;;;5028650;28;20220;-65
2023/05/28 07:05:59;;;;;;;3.87;1.30;;;;;;;;;;5025086;28;20594;-66
2023/05/28 07:08:32;;;;;;;2.67;1.30;;;;;;;;;;5031376;28;20198;-66
2023/05/28 07:11:00;;;;;;;2.90;1.50;;;;;;;;;;4997612;28;20559;-67
2023/05/28 07:13:27;;;;;;;2.37;1.17;;;;;;;;;;5007296;28;20675;-67
2023/05/28 07:15:54;;;;;;;4.10;1.30;;;;;;;;;;5058213;28;20722;-65
2023/05/28 07:18:23;;;;;;;2.27;1.20;;;;;;;;;;5013418;28;20243;-64
2023/05/28 07:20:50;;;;;;;2.60;1.23;;;;;;;;;;5022559;28;20278;-66
2023/05/28 07:23:23;;;;;;;2.53;1.20;;;;;;;;;;5021625;28;20203;-66
2023/05/28 07:25:52;;;;;;;4.13;1.20;;;;;;;;;;5026836;28;20207;-66
2023/05/28 07:28:20;;;;;;;2.60;1.17;;;;;;;;;;5028747;28;20673;-65
2023/05/28 07:30:48;;;;;;;6.13;1.10;;;;;;;;;;5025108;28;20203;-65
2023/05/28 07:33:16;;;;;;;5.70;1.20;;;;;;;;;;5008073;28;20367;-65
2023/05/28 07:35:43;;;;;;;4.40;1.30;;;;;;;;;;5018770;28;20925;-65
2023/05/28 07:38:11;;;;;;;2.63;1.33;;;;;;;;;;5024676;28;20212;-68
2023/05/28 07:40:38;;;;;;;4.97;1.30;;;;;;;;;;5008410;28;20189;-64
2023/05/28 07:43:20;;;;;;;3.00;1.30;;;;;;;;;;5022240;28;20277;-64
2023/05/28 07:45:49;;;;;;;3.57;1.40;;;;;;;;;;5027444;28;20203;-65
2023/05/28 07:48:16;;;;;;;3.00;1.20;;;;;;;;;;5018794;28;20298;-68
2023/05/28 07:50:59;;;;;;;3.70;1.30;;;;;;;;;;5008640;28;20725;-66
2023/05/28 07:53:48;;;;;;;2.87;1.40;;;;;;;;;;5008137;28;21043;-66
2023/05/28 07:56:20;;;;;;;3.60;1.20;;;;;;;;;;5007487;28;20219;-65
2023/05/28 07:58:47;;;;;;;2.17;1.27;;;;;;;;;;5007036;28;21096;-66
2023/05/28 08:01:17;;;;;;;3.23;1.13;;;;;;;;;;5003089;28;20212;-66
2023/05/28 08:03:48;;;;;;;2.37;1.30;;;;;;;;;;5025579;28;20187;-67
2023/05/28 08:06:18;;;;;;;1.83;1.23;;;;;;;;;;5007328;28;20314;-66
2023/05/28 08:08:45;;;;;;;1.93;1.20;;;;;;;;;;5015625;28;20231;-65
2023/05/28 08:11:14;;;;;;;2.20;1.40;;;;;;;;;;5002495;28;20205;-65
2023/05/28 08:13:42;;;;;;;2.93;1.40;;;;;;;;;;4991938;28;20188;-64
2023/05/28 08:16:11;;;;;;;2.13;1.43;;;;;;;;;;5007754;28;20579;-64
2023/05/28 08:19:04;;;;;;;2.13;1.40;;;;;;;;;;5004516;28;20302;-63
2023/05/28 08:21:32;;;;;;;2.30;1.30;;;;;;;;;;5007866;28;20239;-64
2023/05/28 08:24:02;;;;;;;2.17;1.37;;;;;;;;;;5021307;28;20206;-63
2023/05/28 08:26:30;;;;;;;2.90;1.10;;;;;;;;;;5007823;28;20622;-64
2023/05/28 08:28:58;;;;;;;3.90;1.40;;;;;;;;;;5009609;28;20299;-64
2023/05/28 08:31:27;;;;;;;2.67;1.40;;;;;;;;;;5007486;28;20258;-63
2023/05/28 08:34:08;;;;;;;4.27;1.33;;;;;;;;;;5024149;28;20192;-63
2023/05/28 08:36:37;;;;;;;4.07;1.40;;;;;;;;;;4992974;28;20283;-64
2023/05/28 08:39:09;;;;;;;4.03;1.40;;;;;;;;;;5008536;28;20592;-64
2023/05/28 08:41:40;;;;;;;3.33;1.33;;;;;;;;;;5008908;28;20199;-64
2023/05/28 08:44:06;;;;;;;3.20;1.30;;;;;;;;;;5007706;28;20200;-64
2023/05/28 08:46:33;;;;;;;3.47;1.50;;;;;;;;;;5004416;28;20196;-64
2023/05/28 08:49:21;;;;;;;3.47;1.50;;;;;;;;;;5008799;28;20198;-64
2023/05/28 08:51:48;;;;;;;4.90;1.40;;;;;;;;;;5006308;28;20592;-64
2023/05/28 08:54:17;;;;;;;3.43;1.50;;;;;;;;;;4985815;28;20296;-64
2023/05/28 08:56:44;;;;;;;3.70;1.60;;;;;;;;;;4970806;28;20200;-66
2023/05/28 08:59:12;;;;;;;3.27;1.60;;;;;;;;;;4978948;28;20554;-64
2023/05/28 09:01:39;;;;;;;3.30;1.30;;;;;;;;;;4986991;28;20283;-65
2023/05/28 09:04:13;;;;;;;5.63;1.60;;;;;;;;;;4972962;28;20196;-64
2023/05/28 09:06:43;;;;;;;2.00;1.20;;;;;;;;;;4976266;28;20223;-64
2023/05/28 09:09:23;;;;;;;4.07;1.47;;;;;;;;;;4979268;28;20205;-64
2023/05/28 09:11:58;;;;;;;2.50;1.47;;;;;;;;;;4996365;28;20237;-64
2023/05/28 09:14:26;;;;;;;2.40;1.57;;;;;;;;;;4987310;28;20216;-67
2023/05/28 09:16:56;;;;;;;3.13;1.50;;;;;;;;;;4981284;28;20199;-64
2023/05/28 09:19:25;;;;;;;2.53;1.33;;;;;;;;;;5006402;28;20316;-63
2023/05/28 09:21:55;;;;;;;1.90;1.33;;;;;;;;;;4992939;28;20619;-63
2023/05/28 09:24:26;;;;;;;4.07;1.47;;;;;;;;;;4987544;28;20204;-65
2023/05/28 09:27:12;;;;;;;2.77;1.37;;;;;;;;;;5003346;28;20211;-65
2023/05/28 09:29:41;;;;;;;3.63;1.50;;;;;;;;;;5009921;28;20309;-67
2023/05/28 09:32:08;;;;;;;4.13;1.50;;;;;;;;;;4986998;28;20264;-64
2023/05/28 09:34:35;;;;;;;4.60;1.37;;;;;;;;;;5006687;28;20658;-61
2023/05/28 09:37:05;;;;;;;2.20;1.50;;;;;;;;;;5011121;28;20215;-61
2023/05/28 09:39:32;;;;;;;6.87;1.50;;;;;;;;;;5029122;28;20265;-61
2023/05/28 09:42:11;;;;;;;5.07;1.40;;;;;;;;;;5028721;28;20185;-61
2023/05/28 09:44:39;;;;;;;4.07;1.87;;;;;;;;;;5028867;28;20191;-60
2023/05/28 09:47:15;;;;;;;3.33;1.60;;;;;;;;;;5013037;28;20964;-60
2023/05/28 09:49:46;;;;;;;3.43;1.50;;;;;;;;;;5028424;28;20187;-61
2023/05/28 09:52:16;;;;;;;4.03;1.87;;;;;;;;;;5028618;28;20659;-64
2023/05/28 09:54:45;;;;;;;2.80;1.40;;;;;;;;;;5010036;28;20662;-61
2023/05/28 09:57:11;;;;;;;3.93;1.50;;;;;;;;;;5010728;28;21091;-61
2023/05/28 09:59:38;;;;;;;2.43;1.30;;;;;;;;;;5028028;28;20221;-60
2023/05/28 10:02:11;;;;;;;3.03;1.43;;;;;;;;;;5028420;28;20710;-62
2023/05/28 10:04:37;;;;;;;3.00;1.50;;;;;;;;;;5029686;28;20197;-61
2023/05/28 10:07:05;;;;;;;3.00;1.57;;;;;;;;;;5014284;28;20191;-60
2023/05/28 10:09:32;;;;;;;3.30;1.43;;;;;;;;;;5031682;28;20188;-61
2023/05/28 10:12:01;;;;;;;2.57;1.40;;;;;;;;;;5031923;28;20198;-60
2023/05/28 10:14:27;;;;;;;4.03;1.60;;;;;;;;;;5031486;28;20201;-61
2023/05/28 10:16:54;;;;;;;5.57;1.90;;;;;;;;;;5027913;28;20194;-60
2023/05/28 10:19:21;;;;;;;3.40;1.40;;;;;;;;;;5051555;28;20218;-62
2023/05/28 10:21:48;;;;;;;3.07;1.60;;;;;;;;;;5033782;28;20210;-60
2023/05/28 10:24:14;;;;;;;2.47;1.47;;;;;;;;;;5051966;28;20209;-61
2023/05/28 10:26:43;;;;;;;2.87;1.50;;;;;;;;;;5034219;28;20188;-60
2023/05/28 10:29:09;;;;;;;3.07;1.67;;;;;;;;;;5033403;28;20249;-61
2023/05/28 10:31:36;;;;;;;2.80;1.63;;;;;;;;;;5051220;28;20186;-60
2023/05/28 10:34:13;;;;;;;4.63;1.93;;;;;;;;;;5050063;28;20190;-60
2023/05/28 10:36:51;;;;;;;6.23;1.70;;;;;;;;;;5050964;28;20280;-61
2023/05/28 10:39:42;;;;;;;4.13;1.70;;;;;;;;;;5033046;28;20676;-61
2023/05/28 10:42:10;;;;;;;3.00;1.40;;;;;;;;;;5050996;28;20191;-61
2023/05/28 10:44:51;;;;;;;3.70;1.70;;;;;;;;;;5033504;28;20215;-61
2023/05/28 10:47:18;;;;;;;2.73;1.63;;;;;;;;;;5051117;28;20273;-60
2023/05/28 10:49:57;;;;;;;3.13;1.40;;;;;;;;;;5033135;28;20249;-60
2023/05/28 10:52:40;;;;;;;2.73;1.50;;;;;;;;;;5051458;28;20270;-61
2023/05/28 10:55:07;;;;;;;3.30;1.67;;;;;;;;;;5050841;28;20672;-60
2023/05/28 10:57:42;;;;;;;2.87;1.50;;;;;;;;;;5050508;28;20279;-60
2023/05/28 11:00:12;;;;;;;3.90;1.43;;;;;;;;;;5050750;28;20675;-61
2023/05/28 11:02:41;;;;;;;3.93;1.53;;;;;;;;;;5050543;28;20199;-61
2023/05/28 11:05:08;;;;;;;3.97;1.40;;;;;;;;;;5033002;28;20262;-61
2023/05/28 11:07:38;;;;;;;4.30;1.50;;;;;;;;;;5050416;28;20191;-61
2023/05/28 11:10:06;;;;;;;3.60;1.50;;;;;;;;;;5050628;28;20187;-61
2023/05/28 11:12:36;;;;;;;3.57;1.77;;;;;;;;;;5050310;28;20206;-61
2023/05/28 11:15:04;;;;;;;3.63;1.50;;;;;;;;;;5050457;28;20668;-62
2023/05/28 11:17:35;;;;;;;3.97;1.60;;;;;;;;;;5030916;28;20230;-61
2023/05/28 11:20:02;;;;;;;3.27;1.63;;;;;;;;;;5030271;28;20299;-61
2023/05/28 11:22:32;;;;;;;2.50;1.40;;;;;;;;;;5030134;28;20730;-61
2023/05/28 11:25:04;;;;;;;4.13;1.40;;;;;;;;;;5030468;28;20191;-61
2023/05/28 11:27:32;;;;;;;5.07;1.73;;;;;;;;;;5029821;28;20940;-62
2023/05/28 11:29:59;;;;;;;3.43;1.57;;;;;;;;;;5030542;28;20203;-61
2023/05/28 11:32:31;;;;;;;3.67;1.53;;;;;;;;;;5030163;28;20222;-61
2023/05/28 11:34:58;;;;;;;5.20;1.70;;;;;;;;;;5029306;28;20234;-60
2023/05/28 11:37:25;;;;;;;3.97;1.67;;;;;;;;;;5030556;28;20207;-60
2023/05/28 11:39:53;;;;;;;2.40;1.60;;;;;;;;;;5030206;28;20695;-61
2023/05/28 11:42:20;;;;;;;2.23;1.33;;;;;;;;;;5029784;28;20212;-60
2023/05/28 11:44:47;;;;;;;2.13;1.70;;;;;;;;;;5012630;28;20213;-60
2023/05/28 11:47:14;;;;;;;3.60;1.50;;;;;;;;;;5029958;28;20211;-61
2023/05/28 11:49:41;;;;;;;2.73;1.60;;;;;;;;;;5030080;28;20195;-61
2023/05/28 11:52:11;;;;;;;2.97;1.50;;;;;;;;;;5029904;28;20609;-61
2023/05/28 11:54:40;;;;;;;2.87;1.70;;;;;;;;;;5029908;28;20196;-61
2023/05/28 11:57:07;;;;;;;3.00;1.53;;;;;;;;;;5029995;28;20627;-62
2023/05/28 11:59:34;;;;;;;3.23;1.40;;;;;;;;;;5011972;28;20226;-62
2023/05/28 12:02:18;;;;;;;4.00;1.30;;;;;;;;;;5011968;28;20191;-60
2023/05/28 12:05:00;;;;;;;3.93;1.77;;;;;;;;;;5029737;28;20179;-65
2023/05/28 12:07:32;;;;;;;3.90;1.80;;;;;;;;;;5029187;28;20294;-62
2023/05/28 12:10:05;;;;;;;5.30;1.80;;;;;;;;;;5029441;28;20184;-64
2023/05/28 12:12:33;;;;;;;3.00;1.80;;;;;;;;;;4995145;28;21053;-63
2023/05/28 12:15:03;;;;;;;4.70;1.57;;;;;;;;;;5029780;28;20299;-65
2023/05/28 12:17:36;;;;;;;1.97;1.50;;;;;;;;;;5030222;28;20227;-65
2023/05/28 12:20:07;;;;;;;2.73;1.20;;;;;;;;;;5049036;28;20222;-63
2023/05/28 12:22:34;;;;;;;3.67;1.80;;;;;;;;;;5049260;28;20535;-64
2023/05/28 12:25:02;;;;;;;2.67;1.40;;;;;;;;;;5031362;28;20290;-64
2023/05/28 12:27:28;;;;;;;3.73;1.80;;;;;;;;;;5048079;28;20240;-64
2023/05/28 12:29:55;;;;;;;5.53;1.70;;;;;;;;;;5031513;28;20592;-64
2023/05/28 12:32:22;;;;;;;2.80;1.87;;;;;;;;;;5048635;28;20175;-64
2023/05/28 12:34:50;;;;;;;4.80;1.90;;;;;;;;;;5048991;28;20499;-64
2023/05/28 12:37:19;;;;;;;2.53;1.50;;;;;;;;;;5034582;28;20192;-63
2023/05/28 12:39:46;;;;;;;3.07;1.60;;;;;;;;;;5030605;28;20223;-63
2023/05/28 12:42:12;;;;;;;3.20;1.53;;;;;;;;;;5030523;28;20267;-63
2023/05/28 12:44:39;;;;;;;3.27;1.73;;;;;;;;;;5030634;28;20187;-63
2023/05/28 12:47:06;;;;;;;5.03;1.67;;;;;;;;;;5030523;28;20563;-63
2023/05/28 12:49:36;;;;;;;5.67;1.90;;;;;;;;;;5012936;28;20742;-62
2023/05/28 12:52:03;;;;;;;3.67;1.70;;;;;;;;;;5030216;28;20192;-62
2023/05/28 12:54:30;;;;;;;4.23;1.73;;;;;;;;;;5029754;28;20223;-63
2023/05/28 12:56:57;;;;;;;2.80;1.47;;;;;;;;;;5029925;28;20272;-61
2023/05/28 12:59:25;;;;;;;3.43;1.90;;;;;;;;;;5030276;28;20220;-62
2023/05/28 13:01:51;;;;;;;3.90;1.70;;;;;;;;;;5030328;28;20282;-62
2023/05/28 13:04:18;;;;;;;4.70;1.77;;;;;;;;;;5029916;28;20663;-61
2023/05/28 13:06:45;;;;;;;5.03;1.80;;;;;;;;;;5029688;28;20665;-61
2023/05/28 13:09:12;;;;;;;3.07;1.60;;;;;;;;;;5029966;28;20209;-61
2023/05/28 13:11:39;;;;;;;3.10;1.87;;;;;;;;;;5029725;28;20205;-62
2023/05/28 13:14:06;;;;;;;3.43;2.03;;;;;;;;;;5030460;28;20202;-62
2023/05/28 13:16:33;;;;;;;3.73;1.93;;;;;;;;;;5041470;28;20197;-61
2023/05/28 13:19:01;;;;;;;3.77;1.80;;;;;;;;;;5030405;28;20274;-61
2023/05/28 13:21:32;;;;;;;2.73;1.50;;;;;;;;;;5029748;28;20201;-61
2023/05/28 13:24:00;;;;;;;3.57;1.93;;;;;;;;;;5029380;28;20192;-61
2023/05/28 13:26:26;;;;;;;4.20;2.07;;;;;;;;;;5010824;28;20206;-62
2023/05/28 13:28:53;;;;;;;2.03;1.43;;;;;;;;;;5028515;28;20655;-61
2023/05/28 13:31:20;;;;;;;4.60;2.10;;;;;;;;;;5028077;28;21049;-61
2023/05/28 13:33:48;;;;;;;3.03;1.50;;;;;;;;;;5028337;28;20183;-61
2023/05/28 13:36:15;;;;;;;3.23;1.50;;;;;;;;;;5028304;28;20196;-60
2023/05/28 13:38:42;;;;;;;7.60;2.10;;;;;;;;;;5011109;28;20259;-61
2023/05/28 13:41:10;;;;;;;2.60;1.70;;;;;;;;;;5014516;28;20198;-61
2023/05/28 13:43:37;;;;;;;4.73;1.50;;;;;;;;;;5014636;28;20206;-61
2023/05/28 13:46:04;;;;;;;4.10;1.80;;;;;;;;;;5032283;28;20179;-61
2023/05/28 13:48:31;;;;;;;4.53;1.90;;;;;;;;;;5032020;28;20218;-64
2023/05/28 13:50:57;;;;;;;3.20;1.80;;;;;;;;;;5032553;28;20187;-63
2023/05/28 13:53:24;;;;;;;2.47;1.50;;;;;;;;;;5032053;28;20609;-59
2023/05/28 13:55:51;;;;;;;2.37;1.43;;;;;;;;;;5014416;28;20187;-59
2023/05/28 13:58:18;;;;;;;3.30;1.63;;;;;;;;;;5031890;28;20203;-59
2023/05/28 14:00:44;;;;;;;4.27;1.70;;;;;;;;;;5031907;28;20199;-59
2023/05/28 14:03:13;;;;;;;3.77;1.63;;;;;;;;;;5032006;28;20197;-59
2023/05/28 14:05:42;;;;;;;3.27;1.53;;;;;;;;;;5032026;28;20266;-59
2023/05/28 14:08:08;;;;;;;4.67;1.43;;;;;;;;;;5031643;28;20192;-59
2023/05/28 14:10:35;;;;;;;2.60;1.50;;;;;;;;;;5031939;28;20183;-59
2023/05/28 14:13:02;;;;;;;2.73;1.50;;;;;;;;;;5031455;28;20279;-60
2023/05/28 14:15:29;;;;;;;3.43;1.90;;;;;;;;;;5034179;28;20192;-59
2023/05/28 14:17:56;;;;;;;2.60;1.80;;;;;;;;;;5051750;28;20218;-60
2023/05/28 14:20:23;;;;;;;2.80;1.30;;;;;;;;;;5051409;28;20229;-59
2023/05/28 14:22:50;;;;;;;2.53;1.50;;;;;;;;;;5051870;28;20293;-59
2023/05/28 14:25:17;;;;;;;4.43;1.80;;;;;;;;;;5051757;28;20244;-60
2023/05/28 14:27:44;;;;;;;3.03;1.80;;;;;;;;;;5051293;28;20187;-59
2023/05/28 14:30:15;;;;;;;6.50;1.80;;;;;;;;;;5051433;28;20207;-59
2023/05/28 14:32:41;;;;;;;4.53;1.77;;;;;;;;;;5051483;28;20194;-59
2023/05/28 14:35:08;;;;;;;3.30;1.50;;;;;;;;;;5050981;28;20661;-60
2023/05/28 14:37:35;;;;;;;4.00;1.67;;;;;;;;;;5051152;28;20650;-60
2023/05/28 14:40:03;;;;;;;3.83;1.73;;;;;;;;;;5050931;28;20281;-60
2023/05/28 14:42:32;;;;;;;4.67;1.80;;;;;;;;;;5051066;28;20221;-60
2023/05/28 14:44:59;;;;;;;3.13;1.73;;;;;;;;;;5050968;28;20272;-60
2023/05/28 14:47:25;;;;;;;2.17;1.43;;;;;;;;;;5050927;28;20191;-60
2023/05/28 14:49:52;;;;;;;2.20;1.57;;;;;;;;;;5028241;28;20607;-61
2023/05/28 14:52:30;;;;;;;4.23;1.60;;;;;;;;;;5030289;28;20207;-60
2023/05/28 14:54:57;;;;;;;4.77;1.70;;;;;;;;;;5030313;28;20230;-60
2023/05/28 14:57:25;;;;;;;6.47;1.83;;;;;;;;;;5031043;28;20218;-61
2023/05/28 14:59:53;;;;;;;4.37;1.83;;;;;;;;;;5012542;28;20299;-63
2023/05/28 15:02:20;;;;;;;3.17;1.67;;;;;;;;;;5027998;28;20271;-62
2023/05/28 15:04:46;;;;;;;6.40;2.13;;;;;;;;;;5011693;28;20245;-62
2023/05/28 15:07:13;;;;;;;5.63;1.87;;;;;;;;;;5009410;28;20192;-62
2023/05/28 15:09:40;;;;;;;3.47;1.70;;;;;;;;;;5021772;28;20218;-62
2023/05/28 15:12:11;;;;;;;7.10;1.87;;;;;;;;;;5029989;28;20258;-58
2023/05/28 15:14:37;;;;;;;78.20;17.50;;;;;;;;;;5023429;28;20566;-58
2023/05/28 15:17:05;;;;;;;5.27;2.13;;;;;;;;;;5027674;28;20223;-59
2023/05/28 15:19:32;;;;;;;41.53;9.77;;;;;;;;;;5010116;28;20207;-58
2023/05/28 15:22:01;;;;;;;3.73;1.80;;;;;;;;;;5024751;28;20192;-58
2023/05/28 15:24:31;;;;;;;5.10;1.90;;;;;;;;;;5025474;28;20188;-58
2023/05/28 15:26:57;;;;;;;2.80;1.80;;;;;;;;;;5027402;28;20223;-58
2023/05/28 15:29:25;;;;;;;5.03;1.53;;;;;;;;;;5024441;28;20187;-59